Time;durP1;ratioP1;P1;durP2;ratioP2;P2;SDS_P1;SDS_P2;PMS_P1;PMS_P2;Temp;Humidity;BMP_temperature;BMP_pressure;BME280_temperature;BME280_humidity;BME280_pressure;Samples;Min_cycle;Max_cycle;Signal;HPM_P1;HPM_P2
2021/07/04 00:00:32;;;;;;;6.70;5.20;;;15.40;99.90;;;;;;5013024;28;20509;-83
2021/07/04 00:03:02;;;;;;;5.95;4.90;;;15.40;99.90;;;;;;5012103;28;20525;-83
2021/07/04 00:05:34;;;;;;;16.27;5.63;;;15.40;99.90;;;;;;5012394;28;20046;-82
2021/07/04 00:08:03;;;;;;;5.88;5.15;;;15.40;99.90;;;;;;5043774;28;20054;-82
2021/07/04 00:10:35;;;;;;;8.48;5.40;;;15.40;99.90;;;;;;5010723;28;20056;-82
2021/07/04 00:13:04;;;;;;;6.00;5.03;;;15.40;99.90;;;;;;5012283;28;20057;-82
2021/07/04 00:15:40;;;;;;;5.88;5.03;;;15.40;99.90;;;;;;5012881;28;20486;-82
2021/07/04 00:18:12;;;;;;;7.32;6.25;;;15.40;99.90;;;;;;5011956;28;20052;-82
2021/07/04 00:20:41;;;;;;;7.40;4.40;;;15.40;99.90;;;;;;5012322;28;20494;-82
2021/07/04 00:23:09;;;;;;;6.03;4.75;;;15.40;99.90;;;;;;5012027;28;20061;-82
2021/07/04 00:25:37;;;;;;;5.88;5.15;;;15.40;99.90;;;;;;5011976;28;20049;-82
2021/07/04 00:28:06;;;;;;;9.60;6.07;;;15.40;99.90;;;;;;5012730;28;20054;-89
2021/07/04 00:30:34;;;;;;;8.60;6.32;;;15.40;99.90;;;;;;4994656;28;20056;-88
2021/07/04 00:33:04;;;;;;;7.65;5.63;;;15.40;99.90;;;;;;5011999;28;20046;-82
2021/07/04 00:35:32;;;;;;;6.15;5.45;;;15.40;99.90;;;;;;5012213;28;20053;-81
2021/07/04 00:38:08;;;;;;;6.65;6.05;;;15.50;99.90;;;;;;5011582;28;20411;-82
2021/07/04 00:40:36;;;;;;;7.40;4.63;;;15.50;99.90;;;;;;5011347;28;20058;-81
2021/07/04 00:43:05;;;;;;;8.77;6.07;;;15.50;99.90;;;;;;5012373;28;20049;-82
2021/07/04 00:45:33;;;;;;;8.30;6.43;;;15.50;99.90;;;;;;5010472;28;20050;-81
2021/07/04 00:48:03;;;;;;;6.90;5.35;;;15.60;99.90;;;;;;4994958;28;20042;-82
2021/07/04 00:50:32;;;;;;;9.43;6.25;;;15.60;99.90;;;;;;5011649;28;20061;-81
2021/07/04 00:53:01;;;;;;;7.10;5.68;;;15.60;99.90;;;;;;5009583;28;20046;-81
2021/07/04 00:55:34;;;;;;;8.10;4.90;;;15.60;99.90;;;;;;5006641;28;20065;-81
2021/07/04 00:58:09;;;;;;;7.82;6.28;;;15.60;99.90;;;;;;4990742;28;20064;-81
2021/07/04 01:00:41;;;;;;;6.05;5.43;;;15.60;99.90;;;;;;4990727;28;20396;-81
2021/07/04 01:03:09;;;;;;;6.22;4.72;;;15.60;99.90;;;;;;4990561;28;20046;-81
2021/07/04 01:05:42;;;;;;;8.73;6.95;;;15.60;99.90;;;;;;4990613;28;20046;-81
2021/07/04 01:08:13;;;;;;;7.93;6.47;;;15.60;99.90;;;;;;4990960;28;20412;-81
2021/07/04 01:10:42;;;;;;;8.60;6.57;;;15.60;99.90;;;;;;4991337;28;20039;-81
2021/07/04 01:13:14;;;;;;;7.00;5.30;;;15.60;99.90;;;;;;4991705;28;20427;-81
2021/07/04 01:15:52;;;;;;;10.77;5.95;;;15.60;99.90;;;;;;4992316;28;20507;-81
2021/07/04 01:18:21;;;;;;;6.43;5.82;;;15.60;99.90;;;;;;4989862;28;20058;-81
2021/07/04 01:20:58;;;;;;;5.78;5.20;;;15.60;99.90;;;;;;4990266;28;20058;-81
2021/07/04 01:23:27;;;;;;;7.07;5.50;;;15.60;99.90;;;;;;5007260;28;20054;-81
2021/07/04 01:25:56;;;;;;;6.65;5.95;;;15.60;99.90;;;;;;5011163;28;20080;-81
2021/07/04 01:28:33;;;;;;;5.85;4.65;;;15.60;99.90;;;;;;5011071;28;20606;-81
2021/07/04 01:31:09;;;;;;;6.93;5.63;;;15.50;99.90;;;;;;5011335;28;20505;-82
2021/07/04 01:33:42;;;;;;;6.88;5.03;;;15.60;99.90;;;;;;5008996;28;20038;-82
2021/07/04 01:36:19;;;;;;;6.45;5.57;;;15.60;99.90;;;;;;5011541;28;20061;-82
2021/07/04 01:38:50;;;;;;;6.32;4.93;;;15.60;99.90;;;;;;5008811;28;20046;-81
2021/07/04 01:41:19;;;;;;;7.90;7.05;;;15.50;99.90;;;;;;5008608;28;20034;-81
2021/07/04 01:43:49;;;;;;;7.93;6.33;;;15.50;99.90;;;;;;4993673;28;20058;-81
2021/07/04 01:46:22;;;;;;;8.33;6.67;;;15.40;99.90;;;;;;5009422;28;20285;-81
2021/07/04 01:48:54;;;;;;;7.45;5.50;;;15.40;99.90;;;;;;5009683;28;20273;-81
2021/07/04 01:51:23;;;;;;;8.13;6.43;;;15.40;99.90;;;;;;5011677;28;20054;-81
2021/07/04 01:53:51;;;;;;;7.35;6.60;;;15.40;99.90;;;;;;5008381;28;20050;-81
2021/07/04 01:56:25;;;;;;;6.10;4.85;;;15.40;99.90;;;;;;5011496;28;20054;-81
2021/07/04 01:58:58;;;;;;;6.53;4.65;;;15.40;99.90;;;;;;5009070;28;20061;-81
2021/07/04 02:01:51;;;;;;;7.00;5.80;;;15.30;99.90;;;;;;5009334;28;20077;-81
2021/07/04 02:04:21;;;;;;;7.03;5.25;;;15.30;99.90;;;;;;5009544;28;20558;-81
2021/07/04 02:06:58;;;;;;;7.05;5.45;;;15.30;99.90;;;;;;5009077;28;20050;-81
2021/07/04 02:09:26;;;;;;;6.40;5.07;;;15.30;99.90;;;;;;5009788;28;20145;-81
2021/07/04 02:11:54;;;;;;;7.20;6.10;;;15.30;99.90;;;;;;5009608;28;20057;-81
2021/07/04 02:14:27;;;;;;;5.47;4.90;;;15.20;99.90;;;;;;5009297;28;20049;-81
2021/07/04 02:17:04;;;;;;;5.18;4.70;;;15.20;99.90;;;;;;5010675;28;20503;-81
2021/07/04 02:19:43;;;;;;;5.97;4.63;;;15.20;99.90;;;;;;4975640;28;20065;-81
2021/07/04 02:22:25;;;;;;;12.23;6.20;;;15.20;99.90;;;;;;5011411;28;20049;-81
2021/07/04 02:25:13;;;;;;;5.47;4.43;;;15.20;99.90;;;;;;5033489;28;20056;-81
2021/07/04 02:27:42;;;;;;;5.75;4.53;;;15.20;99.90;;;;;;5034891;28;20477;-81
2021/07/04 02:30:18;;;;;;;7.07;5.10;;;15.10;99.90;;;;;;5032711;28;20044;-80
2021/07/04 02:32:52;;;;;;;8.35;5.07;;;15.10;99.90;;;;;;5034054;28;20057;-81
2021/07/04 02:35:21;;;;;;;6.75;6.05;;;15.10;99.90;;;;;;5032968;28;20048;-81
2021/07/04 02:37:49;;;;;;;6.93;5.88;;;15.10;99.90;;;;;;5019945;28;20125;-81
2021/07/04 02:40:25;;;;;;;4.85;4.22;;;15.10;99.90;;;;;;5013135;28;20061;-81
2021/07/04 02:42:59;;;;;;;5.95;4.78;;;15.10;99.90;;;;;;5012458;28;20046;-81
2021/07/04 02:45:28;;;;;;;5.07;4.53;;;15.10;99.90;;;;;;5013141;28;20050;-81
2021/07/04 02:48:15;;;;;;;7.15;5.32;;;15.10;99.90;;;;;;5014576;28;20053;-81
2021/07/04 02:50:49;;;;;;;6.88;6.10;;;15.10;99.90;;;;;;5013816;28;20049;-81
2021/07/04 02:53:20;;;;;;;6.10;5.30;;;15.10;99.90;;;;;;5012049;28;20049;-81
2021/07/04 02:55:50;;;;;;;7.57;4.40;;;15.10;99.90;;;;;;5007013;28;20042;-81
2021/07/04 02:58:20;;;;;;;10.13;5.32;;;15.20;99.90;;;;;;4992858;28;20058;-81
2021/07/04 03:00:49;;;;;;;7.72;5.35;;;15.20;99.90;;;;;;4994290;28;20050;-81
2021/07/04 03:03:20;;;;;;;6.87;6.10;;;15.20;99.90;;;;;;4993050;28;20487;-81
2021/07/04 03:05:49;;;;;;;5.80;5.22;;;15.20;99.90;;;;;;4994268;28;20286;-81
2021/07/04 03:08:18;;;;;;;9.40;6.90;;;15.20;99.90;;;;;;4993985;28;20475;-81
2021/07/04 03:10:47;;;;;;;7.18;5.75;;;15.20;99.90;;;;;;4992298;28;20045;-81
2021/07/04 03:13:19;;;;;;;12.00;9.68;;;15.20;99.90;;;;;;4992527;28;20053;-80
2021/07/04 03:15:48;;;;;;;7.97;6.07;;;15.10;99.90;;;;;;4993325;28;20054;-81
2021/07/04 03:18:16;;;;;;;9.20;6.50;;;15.10;99.90;;;;;;4992429;28;20050;-81
2021/07/04 03:20:45;;;;;;;8.30;7.10;;;15.10;99.90;;;;;;4992306;28;20204;-81
2021/07/04 03:23:14;;;;;;;5.57;4.75;;;15.20;99.90;;;;;;5024827;28;20045;-81
2021/07/04 03:25:45;;;;;;;7.40;6.30;;;15.10;99.90;;;;;;5031726;28;20394;-82
2021/07/04 03:28:15;;;;;;;7.03;5.78;;;15.20;99.90;;;;;;5033634;28;20739;-81
2021/07/04 03:30:44;;;;;;;7.63;5.07;;;15.20;99.90;;;;;;5031073;28;20045;-82
2021/07/04 03:33:11;;;;;;;7.53;6.15;;;15.20;99.90;;;;;;5022528;28;20038;-81
2021/07/04 03:35:40;;;;;;;7.65;5.15;;;15.20;99.90;;;;;;4976229;28;20054;-82
2021/07/04 03:38:10;;;;;;;7.57;6.03;;;15.10;99.90;;;;;;5006790;28;20045;-81
2021/07/04 03:40:43;;;;;;;6.65;4.35;;;15.10;99.90;;;;;;5011538;28;20057;-81
2021/07/04 03:43:22;;;;;;;6.20;4.60;;;15.10;99.90;;;;;;5012537;28;20041;-81
2021/07/04 03:45:52;;;;;;;4.18;3.22;;;15.00;99.90;;;;;;5012000;28;20053;-80
2021/07/04 03:48:20;;;;;;;5.43;3.67;;;15.00;99.90;;;;;;4996101;28;20045;-82
2021/07/04 03:50:59;;;;;;;3.80;3.15;;;15.00;99.90;;;;;;5012457;28;20073;-80
2021/07/04 03:53:28;;;;;;;2.88;2.10;;;15.00;99.90;;;;;;5010757;28;20042;-81
2021/07/04 03:55:58;;;;;;;2.92;2.08;;;15.00;99.90;;;;;;5045145;28;20041;-84
2021/07/04 03:58:29;;;;;;;2.58;2.10;;;15.00;99.90;;;;;;5011697;28;20486;-83
2021/07/04 04:00:58;;;;;;;2.47;2.28;;;15.00;99.90;;;;;;4994758;28;20391;-81
2021/07/04 04:03:34;;;;;;;3.72;2.88;;;15.00;99.90;;;;;;5012870;28;20076;-81
2021/07/04 04:06:04;;;;;;;5.13;3.40;;;15.00;99.90;;;;;;5012838;28;20046;-81
2021/07/04 04:08:46;;;;;;;5.50;3.38;;;15.00;99.90;;;;;;5010484;28;20125;-81
2021/07/04 04:11:20;;;;;;;4.22;3.10;;;15.00;99.90;;;;;;5010822;28;20402;-82
2021/07/04 04:13:57;;;;;;;3.28;2.88;;;14.90;99.90;;;;;;5011138;28;20077;-82
2021/07/04 04:16:25;;;;;;;4.15;3.75;;;14.90;99.90;;;;;;5011691;28;20046;-83
2021/07/04 04:18:53;;;;;;;3.85;3.38;;;14.90;99.90;;;;;;4997943;28;20066;-82
2021/07/04 04:21:23;;;;;;;4.27;3.87;;;14.90;99.90;;;;;;4975971;28;20043;-82
2021/07/04 04:23:58;;;;;;;4.45;3.30;;;14.90;99.90;;;;;;5029927;28;20076;-82
2021/07/04 04:26:27;;;;;;;3.47;3.05;;;14.90;99.90;;;;;;5032019;28;20053;-82
2021/07/04 04:28:58;;;;;;;4.57;2.75;;;15.00;99.90;;;;;;5032026;28;20402;-81
2021/07/04 04:31:27;;;;;;;4.15;3.10;;;15.00;99.90;;;;;;5030927;28;20060;-81
2021/07/04 04:33:56;;;;;;;5.65;3.42;;;15.00;99.90;;;;;;5031409;28;20584;-81
2021/07/04 04:36:24;;;;;;;3.83;3.20;;;15.00;99.90;;;;;;5031340;28;20049;-81
2021/07/04 04:38:52;;;;;;;3.40;3.05;;;15.00;99.90;;;;;;5011086;28;20053;-81
2021/07/04 04:41:20;;;;;;;3.55;3.25;;;15.00;99.90;;;;;;5011451;28;20604;-81
2021/07/04 04:43:48;;;;;;;3.75;3.00;;;15.10;99.90;;;;;;5012362;28;20487;-83
2021/07/04 04:46:15;;;;;;;3.58;3.20;;;15.10;99.90;;;;;;5011907;28;20057;-83
2021/07/04 04:48:43;;;;;;;3.97;3.58;;;15.20;99.90;;;;;;5011491;28;20065;-83
2021/07/04 04:51:11;;;;;;;3.97;3.58;;;15.20;99.90;;;;;;5011948;28;20057;-83
2021/07/04 04:53:39;;;;;;;5.80;3.47;;;15.20;99.90;;;;;;5028607;28;20052;-83
2021/07/04 04:56:06;;;;;;;7.75;4.80;;;15.30;99.90;;;;;;5023351;28;20053;-83
2021/07/04 04:58:34;;;;;;;3.80;3.38;;;15.30;99.90;;;;;;5011930;28;20046;-83
2021/07/04 05:01:02;;;;;;;9.23;5.63;;;15.20;99.90;;;;;;5011666;28;20149;-82
2021/07/04 05:03:30;;;;;;;3.33;2.92;;;15.20;99.90;;;;;;5010451;28;20068;-83
2021/07/04 05:05:58;;;;;;;6.20;3.20;;;15.30;99.90;;;;;;5010349;28;20068;-83
2021/07/04 05:08:26;;;;;;;4.70;3.38;;;15.30;99.90;;;;;;5011264;28;20395;-83
2021/07/04 05:10:54;;;;;;;4.07;3.60;;;15.30;99.90;;;;;;5011259;28;20054;-83
2021/07/04 05:13:21;;;;;;;5.20;3.88;;;15.30;99.90;;;;;;5011410;28;20403;-83
2021/07/04 05:15:49;;;;;;;3.40;3.10;;;15.30;99.90;;;;;;5011819;28;20076;-81
2021/07/04 05:18:17;;;;;;;4.57;4.07;;;15.30;99.90;;;;;;5009421;28;20050;-80
2021/07/04 05:20:45;;;;;;;5.22;3.95;;;15.40;99.90;;;;;;5009909;28;20420;-82
2021/07/04 05:23:13;;;;;;;7.00;5.75;;;15.40;99.90;;;;;;5025361;28;20046;-83
2021/07/04 05:25:41;;;;;;;5.30;4.00;;;15.40;99.90;;;;;;5030695;28;20083;-83
2021/07/04 05:28:09;;;;;;;4.70;4.20;;;15.40;99.90;;;;;;5031287;28;20466;-82
2021/07/04 05:30:36;;;;;;;9.38;4.70;;;15.50;99.90;;;;;;5028780;28;20045;-82
2021/07/04 05:33:04;;;;;;;4.43;4.03;;;15.50;99.90;;;;;;5026398;28;20415;-82
2021/07/04 05:35:32;;;;;;;5.72;4.80;;;15.50;99.90;;;;;;5011356;28;20041;-82
2021/07/04 05:38:00;;;;;;;6.97;5.00;;;15.50;99.90;;;;;;5010431;28;20046;-83
2021/07/04 05:40:27;;;;;;;6.47;5.50;;;15.50;99.90;;;;;;5009974;28;20407;-83
2021/07/04 05:42:55;;;;;;;5.80;5.05;;;15.50;99.90;;;;;;5008838;28;20045;-83
2021/07/04 05:45:26;;;;;;;8.82;5.47;;;15.50;99.90;;;;;;5011036;28;20053;-84
2021/07/04 05:47:54;;;;;;;;;;;15.60;99.90;;;;;;5010565;28;20046;-83
2021/07/04 05:50:22;;;;;;;8.60;6.38;;;15.60;99.90;;;;;;4992956;28;20301;-82
2021/07/04 05:52:50;;;;;;;8.77;5.70;;;15.70;99.90;;;;;;5021454;28;20466;-82
2021/07/04 05:55:17;;;;;;;8.40;5.57;;;15.80;99.90;;;;;;5027928;28;20045;-82
2021/07/04 05:57:45;;;;;;;10.65;5.90;;;15.80;99.90;;;;;;5013129;28;20037;-83
2021/07/04 06:00:13;;;;;;;6.60;5.85;;;15.90;99.90;;;;;;5030752;28;20049;-84
2021/07/04 06:02:42;;;;;;;6.30;5.70;;;16.00;99.90;;;;;;5030382;28;20529;-84
2021/07/04 06:05:13;;;;;;;11.15;8.18;;;16.00;99.90;;;;;;5012235;28;20800;-84
2021/07/04 06:07:41;;;;;;;9.75;7.25;;;16.00;99.90;;;;;;5030610;28;20065;-84
2021/07/04 06:10:10;;;;;;;6.70;6.05;;;16.10;99.90;;;;;;5028409;28;20046;-84
2021/07/04 06:12:38;;;;;;;8.48;7.78;;;16.20;99.90;;;;;;5012602;28;20061;-83
2021/07/04 06:15:08;;;;;;;6.47;5.05;;;16.20;99.90;;;;;;5012746;28;20398;-84
2021/07/04 06:17:37;;;;;;;10.98;4.97;;;16.30;99.90;;;;;;5025087;28;20045;-84
2021/07/04 06:20:06;;;;;;;6.05;5.55;;;16.30;99.90;;;;;;5010986;28;20053;-83
2021/07/04 06:22:36;;;;;;;5.60;5.05;;;16.30;99.90;;;;;;5009861;28;20038;-84
2021/07/04 06:25:05;;;;;;;8.13;6.05;;;16.30;99.90;;;;;;5010091;28;20496;-84
2021/07/04 06:27:33;;;;;;;7.35;5.78;;;16.40;99.90;;;;;;5010918;28;20476;-84
2021/07/04 06:30:02;;;;;;;10.77;5.07;;;16.50;99.90;;;;;;5009127;28;20499;-85
2021/07/04 06:32:30;;;;;;;9.10;6.28;;;16.60;99.90;;;;;;5010342;28;20046;-84
2021/07/04 06:34:57;;;;;;;6.05;5.45;;;16.60;99.90;;;;;;5009333;28;20058;-84
2021/07/04 06:37:25;;;;;;;9.02;5.57;;;16.70;99.90;;;;;;5008297;28;20118;-83
2021/07/04 06:39:53;;;;;;;8.43;5.65;;;16.80;99.90;;;;;;5007731;28;20050;-83
2021/07/04 06:42:21;;;;;;;6.15;4.95;;;16.80;99.90;;;;;;4992587;28;20053;-85
2021/07/04 06:44:49;;;;;;;7.25;6.43;;;16.90;99.90;;;;;;5009780;28;20050;-80
2021/07/04 06:47:17;;;;;;;8.40;6.45;;;16.90;99.90;;;;;;5008680;28;20049;-82
2021/07/04 06:49:45;;;;;;;7.72;6.20;;;17.00;99.90;;;;;;5009403;28;20060;-82
2021/07/04 06:52:13;;;;;;;6.13;5.55;;;17.00;99.90;;;;;;5017116;28;20049;-81
2021/07/04 06:54:41;;;;;;;10.45;5.25;;;17.10;99.90;;;;;;5028760;28;20056;-86
2021/07/04 06:57:28;;;;;;;7.97;5.70;;;17.10;99.90;;;;;;5010946;28;20053;-87
2021/07/04 06:59:58;;;;;;;7.95;5.50;;;17.20;99.90;;;;;;5007214;28;20046;-86
2021/07/04 07:02:27;;;;;;;6.10;5.55;;;17.30;99.90;;;;;;5008164;28;20809;-85
2021/07/04 07:04:55;;;;;;;5.93;5.32;;;17.30;99.90;;;;;;5009472;28;20061;-84
2021/07/04 07:07:23;;;;;;;5.97;5.00;;;17.30;99.90;;;;;;5014302;28;20514;-84
2021/07/04 07:09:51;;;;;;;6.15;5.60;;;17.30;99.90;;;;;;5013407;28;20508;-79
2021/07/04 07:12:19;;;;;;;6.35;5.72;;;17.30;99.90;;;;;;5030088;28;20399;-84
2021/07/04 07:14:47;;;;;;;7.60;5.57;;;17.40;99.90;;;;;;5032318;28;20062;-84
2021/07/04 07:17:15;;;;;;;7.38;6.68;;;17.40;99.90;;;;;;5032788;28;20045;-81
2021/07/04 07:19:43;;;;;;;5.18;4.47;;;17.50;99.90;;;;;;5031539;28;20045;-83
2021/07/04 07:22:18;;;;;;;4.93;4.43;;;17.60;99.90;;;;;;5002762;28;20057;-83
2021/07/04 07:24:47;;;;;;;5.70;5.13;;;17.60;99.90;;;;;;4992153;28;20058;-82
2021/07/04 07:27:15;;;;;;;5.57;4.55;;;17.60;99.90;;;;;;4991940;28;20061;-83
2021/07/04 07:29:43;;;;;;;6.40;4.85;;;17.60;99.90;;;;;;5044481;28;20084;-81
2021/07/04 07:32:11;;;;;;;5.82;5.25;;;17.60;99.90;;;;;;5031179;28;20054;-82
2021/07/04 07:34:39;;;;;;;7.53;4.95;;;17.70;99.90;;;;;;4997903;28;20042;-82
2021/07/04 07:37:08;;;;;;;6.45;4.70;;;17.70;99.90;;;;;;4999416;28;20066;-82
2021/07/04 07:39:39;;;;;;;5.55;3.97;;;17.80;99.90;;;;;;5012823;28;20045;-83
2021/07/04 07:42:07;;;;;;;6.10;4.60;;;17.90;99.90;;;;;;5011293;28;20038;-82
2021/07/04 07:44:35;;;;;;;3.50;3.20;;;18.00;99.90;;;;;;5011836;28;20050;-82
2021/07/04 07:47:06;;;;;;;16.27;4.70;;;18.00;99.90;;;;;;5012084;28;20065;-83
2021/07/04 07:49:34;;;;;;;5.80;4.28;;;18.10;99.90;;;;;;5011545;28;20388;-82
2021/07/04 07:52:03;;;;;;;5.40;4.38;;;18.20;99.90;;;;;;5012912;28;20049;-81
2021/07/04 07:54:37;;;;;;;5.50;5.00;;;18.40;99.90;;;;;;5012046;28;20046;-82
2021/07/04 07:57:07;;;;;;;4.20;3.80;;;18.60;99.90;;;;;;5012876;28;20682;-81
2021/07/04 07:59:38;;;;;;;3.67;3.33;;;18.70;99.90;;;;;;5013310;28;20050;-80
2021/07/04 08:02:06;;;;;;;4.70;4.18;;;18.70;99.90;;;;;;5012214;28;20048;-81
2021/07/04 08:04:35;;;;;;;5.63;4.45;;;18.80;99.90;;;;;;5012112;28;20775;-81
2021/07/04 08:07:04;;;;;;;11.02;4.30;;;19.10;99.90;;;;;;5011224;28;20415;-81
2021/07/04 08:09:31;;;;;;;4.93;4.22;;;19.50;99.90;;;;;;5011875;28;20050;-85
2021/07/04 08:11:59;;;;;;;3.90;2.75;;;19.80;99.90;;;;;;5011973;28;20399;-83
2021/07/04 08:14:28;;;;;;;4.68;4.28;;;19.70;99.90;;;;;;4993036;28;20492;-88
2021/07/04 08:17:04;;;;;;;3.45;3.25;;;19.50;99.90;;;;;;4991352;28;20073;-83
2021/07/04 08:19:32;;;;;;;5.93;2.72;;;19.20;99.90;;;;;;4993046;28;20055;-83
2021/07/04 08:22:00;;;;;;;3.67;2.97;;;19.10;99.90;;;;;;4998078;28;20487;-76
2021/07/04 08:24:27;;;;;;;5.00;4.25;;;19.00;99.90;;;;;;4994224;28;20606;-83
2021/07/04 08:26:55;;;;;;;3.60;3.30;;;18.90;99.90;;;;;;5012062;28;20046;-83
2021/07/04 08:29:23;;;;;;;5.25;3.80;;;19.00;99.90;;;;;;5010759;28;20037;-83
2021/07/04 08:31:51;;;;;;;4.15;3.75;;;19.10;99.90;;;;;;5011033;28;20319;-85
2021/07/04 08:34:19;;;;;;;7.65;4.47;;;19.10;99.90;;;;;;5012028;28;20113;-85
2021/07/04 08:36:46;;;;;;;6.03;4.97;;;19.20;99.90;;;;;;5011493;28;20042;-85
2021/07/04 08:39:14;;;;;;;6.82;4.20;;;19.20;99.90;;;;;;5009880;28;20077;-84
2021/07/04 08:41:42;;;;;;;8.20;5.28;;;19.30;99.90;;;;;;4994497;28;20415;-85
2021/07/04 08:44:10;;;;;;;6.40;5.75;;;19.10;99.90;;;;;;4994278;28;20053;-85
2021/07/04 08:46:43;;;;;;;4.57;4.13;;;19.10;99.90;;;;;;5022735;28;20521;-84
2021/07/04 08:49:15;;;;;;;5.07;4.60;;;19.00;99.90;;;;;;4981133;28;20053;-86
2021/07/04 08:51:43;;;;;;;5.03;3.78;;;19.20;99.90;;;;;;5016494;28;20048;-86
2021/07/04 08:54:11;;;;;;;6.45;4.68;;;19.30;99.90;;;;;;5032420;28;20044;-85
2021/07/04 08:56:39;;;;;;;4.82;4.35;;;19.40;99.90;;;;;;5019160;28;20053;-84
2021/07/04 08:59:07;;;;;;;6.40;4.97;;;19.50;99.90;;;;;;5013639;28;20045;-85
2021/07/04 09:01:34;;;;;;;7.60;4.57;;;19.60;99.90;;;;;;5031055;28;20045;-86
2021/07/04 09:04:14;;;;;;;5.07;3.95;;;19.80;99.90;;;;;;5013705;28;20056;-85
2021/07/04 09:06:43;;;;;;;6.72;4.90;;;19.90;99.90;;;;;;5031273;28;20096;-84
2021/07/04 09:09:28;;;;;;;4.82;4.43;;;19.80;99.90;;;;;;5030175;28;20049;-85
2021/07/04 09:12:10;;;;;;;5.50;5.00;;;19.70;99.90;;;;;;5046308;28;20057;-85
2021/07/04 09:14:44;;;;;;;5.63;4.75;;;19.80;99.90;;;;;;5013431;28;20506;-85
2021/07/04 09:17:33;;;;;;;5.55;4.72;;;19.70;99.90;;;;;;5013053;28;20045;-83
2021/07/04 09:20:05;;;;;;;6.25;3.80;;;19.60;99.90;;;;;;5013617;28;20687;-84
2021/07/04 09:22:38;;;;;;;3.58;3.28;;;19.80;99.90;;;;;;5030568;28;20049;-85
2021/07/04 09:25:18;;;;;;;4.07;3.53;;;20.00;99.90;;;;;;5028529;28;20052;-84
2021/07/04 09:28:06;;;;;;;5.25;3.72;;;20.10;99.90;;;;;;5046496;28;20045;-85
2021/07/04 09:30:55;;;;;;;4.13;3.28;;;19.80;99.90;;;;;;5012051;28;20048;-84
2021/07/04 09:33:24;;;;;;;6.28;3.20;;;19.70;99.90;;;;;;5006270;28;20718;-84
2021/07/04 09:36:08;;;;;;;2.95;2.65;;;19.60;99.90;;;;;;4977343;28;20049;-85
2021/07/04 09:38:41;;;;;;;4.50;3.90;;;19.70;99.90;;;;;;5010871;28;20049;-85
2021/07/04 09:41:12;;;;;;;6.03;4.68;;;19.70;99.90;;;;;;5012827;28;20049;-85
2021/07/04 09:43:40;;;;;;;;;;;19.90;99.90;;;;;;5014064;28;20060;-85
2021/07/04 09:46:10;;;;;;;4.25;3.17;;;19.90;99.90;;;;;;5012376;28;20283;-85
2021/07/04 09:48:43;;;;;;;4.93;3.65;;;19.90;99.90;;;;;;5012518;28;20057;-84
2021/07/04 09:51:27;;;;;;;3.92;3.58;;;20.30;99.90;;;;;;4996833;28;20513;-86
2021/07/04 09:53:59;;;;;;;3.38;3.08;;;20.70;99.90;;;;;;5025193;28;20050;-85
2021/07/04 09:56:29;;;;;;;3.55;2.83;;;20.80;99.90;;;;;;5011105;28;20045;-85
2021/07/04 09:59:00;;;;;;;3.77;3.37;;;20.90;99.90;;;;;;4976142;28;20068;-85
2021/07/04 10:01:43;;;;;;;4.20;3.80;;;20.70;99.90;;;;;;5025595;28;20046;-86
2021/07/04 10:04:29;;;;;;;4.05;3.67;;;20.90;99.90;;;;;;5026047;28;20046;-85
2021/07/04 10:06:59;;;;;;;3.45;3.25;;;20.80;99.90;;;;;;4992962;28;20407;-85
2021/07/04 10:09:29;;;;;;;3.35;2.45;;;20.80;99.90;;;;;;5024779;28;20668;-85
2021/07/04 10:11:58;;;;;;;2.95;2.35;;;20.80;99.90;;;;;;4993073;28;20549;-88
2021/07/04 10:14:27;;;;;;;6.78;3.70;;;20.80;99.90;;;;;;5010620;28;20053;-86
2021/07/04 10:16:56;;;;;;;5.60;3.40;;;21.00;99.90;;;;;;5008812;28;20419;-86
2021/07/04 10:19:26;;;;;;;6.57;3.47;;;21.00;99.90;;;;;;5044487;28;20053;-85
2021/07/04 10:21:59;;;;;;;3.55;3.00;;;20.90;99.90;;;;;;5016524;28;20060;-85
2021/07/04 10:24:27;;;;;;;3.08;2.60;;;21.00;99.90;;;;;;5015208;28;20064;-83
2021/07/04 10:26:57;;;;;;;2.67;2.40;;;21.10;99.90;;;;;;5050451;28;20041;-84
2021/07/04 10:29:30;;;;;;;5.30;2.97;;;21.20;99.90;;;;;;5050403;28;20379;-86
2021/07/04 10:32:12;;;;;;;4.60;3.40;;;21.30;99.90;;;;;;5012824;28;20049;-86
2021/07/04 10:34:45;;;;;;;3.25;2.60;;;21.20;99.90;;;;;;5015565;28;20041;-86
2021/07/04 10:37:15;;;;;;;3.42;2.75;;;21.10;99.90;;;;;;5015425;28;20048;-85
2021/07/04 10:39:43;;;;;;;3.50;3.00;;;20.90;99.90;;;;;;5048768;28;20068;-86
2021/07/04 10:42:11;;;;;;;3.30;2.92;;;21.10;99.90;;;;;;5052621;28;20056;-86
2021/07/04 10:44:49;;;;;;;3.88;2.85;;;21.30;99.90;;;;;;5019246;28;20406;-85
2021/07/04 10:47:24;;;;;;;4.15;2.95;;;21.30;99.90;;;;;;5054228;28;20067;-87
2021/07/04 10:50:11;;;;;;;4.68;3.25;;;21.30;99.90;;;;;;5053594;28;20048;-86
2021/07/04 10:52:42;;;;;;;2.72;2.20;;;21.30;99.90;;;;;;5007814;28;20045;-88
2021/07/04 10:55:33;;;;;;;3.53;2.78;;;21.40;99.90;;;;;;5015674;28;20048;-86
2021/07/04 10:58:04;;;;;;;3.33;3.00;;;21.50;99.90;;;;;;4980044;28;20042;-85
2021/07/04 11:00:37;;;;;;;3.28;2.83;;;21.50;99.90;;;;;;5013981;28;20049;-85
2021/07/04 11:03:25;;;;;;;2.28;2.08;;;21.60;99.90;;;;;;5029199;28;20058;-86
2021/07/04 11:05:53;;;;;;;3.20;2.50;;;21.70;99.90;;;;;;4979366;28;20534;-87
2021/07/04 11:08:24;;;;;;;3.83;3.45;;;21.90;99.90;;;;;;5011594;28;20050;-86
2021/07/04 11:10:53;;;;;;;;;;;22.00;99.90;;;;;;4995726;28;20041;-85
2021/07/04 11:13:21;;;;;;;2.85;2.10;;;21.90;99.90;;;;;;5013547;28;19926;-86
2021/07/04 11:15:50;;;;;;;2.17;2.00;;;21.70;99.90;;;;;;5014143;28;20053;-86
2021/07/04 11:18:19;;;;;;;2.40;2.20;;;21.70;99.90;;;;;;5013243;28;20042;-87
2021/07/04 11:20:49;;;;;;;3.10;2.58;;;21.60;99.90;;;;;;5013103;28;20049;-85
2021/07/04 11:23:21;;;;;;;2.35;2.13;;;21.50;99.90;;;;;;5011741;28;20056;-85
2021/07/04 11:25:56;;;;;;;2.08;1.88;;;21.50;99.90;;;;;;5015260;28;20049;-85
2021/07/04 11:28:28;;;;;;;2.13;1.98;;;21.40;99.90;;;;;;5016091;28;20045;-86
2021/07/04 11:30:59;;;;;;;2.90;2.50;;;21.50;99.90;;;;;;4998183;28;20050;-86
2021/07/04 11:33:47;;;;;;;3.15;2.38;;;21.40;99.90;;;;;;5014436;28;20034;-86
2021/07/04 11:36:15;;;;;;;2.80;2.40;;;21.40;99.90;;;;;;4999718;28;20041;-86
2021/07/04 11:38:50;;;;;;;3.38;2.58;;;21.30;99.90;;;;;;5010976;28;20046;-86
2021/07/04 11:41:26;;;;;;;2.70;2.35;;;21.30;99.90;;;;;;5028043;28;20566;-86
2021/07/04 11:44:06;;;;;;;2.63;2.33;;;21.40;99.90;;;;;;4995870;28;20479;-86
2021/07/04 11:46:36;;;;;;;1.85;1.60;;;21.70;99.90;;;;;;5028016;28;20065;-85
2021/07/04 11:49:10;;;;;;;3.40;3.10;;;21.80;99.90;;;;;;4995123;28;20526;-86
2021/07/04 11:51:38;;;;;;;2.22;2.00;;;21.80;99.90;;;;;;4980019;28;20054;-85
2021/07/04 11:54:17;;;;;;;2.25;1.73;;;21.70;99.90;;;;;;5013343;28;20046;-86
2021/07/04 11:56:51;;;;;;;2.13;1.95;;;21.70;99.90;;;;;;5030914;28;20045;-86
2021/07/04 11:59:24;;;;;;;2.50;2.28;;;21.70;99.90;;;;;;5033259;28;20056;-86
2021/07/04 12:02:00;;;;;;;1.95;1.80;;;21.80;99.90;;;;;;5032301;28;20053;-86
2021/07/04 12:04:37;;;;;;;2.72;2.08;;;21.90;99.90;;;;;;5014872;28;20050;-86
2021/07/04 12:07:08;;;;;;;2.83;2.53;;;22.00;99.90;;;;;;5046015;28;20495;-79
2021/07/04 12:09:44;;;;;;;2.22;1.52;;;22.00;99.90;;;;;;5031764;28;20503;-79
2021/07/04 12:12:17;;;;;;;2.70;2.25;;;21.80;99.90;;;;;;5047412;28;20038;-81
2021/07/04 12:14:48;;;;;;;2.45;2.10;;;21.60;99.90;;;;;;5013988;28;20060;-81
2021/07/04 12:17:33;;;;;;;2.88;2.35;;;21.60;99.90;;;;;;5031120;28;20049;-82
2021/07/04 12:20:07;;;;;;;3.35;2.42;;;21.40;99.90;;;;;;5012625;28;20399;-81
2021/07/04 12:22:39;;;;;;;2.50;2.15;;;21.30;99.90;;;;;;5004764;28;20057;-82
2021/07/04 12:25:19;;;;;;;2.45;2.25;;;21.40;99.90;;;;;;5013818;28;20487;-82
2021/07/04 12:27:54;;;;;;;2.17;2.08;;;21.50;99.90;;;;;;5015395;28;20054;-82
2021/07/04 12:30:32;;;;;;;2.15;2.00;;;21.50;99.90;;;;;;5032157;28;20061;-81
2021/07/04 12:33:04;;;;;;;1.70;1.45;;;21.50;99.90;;;;;;5032321;28;20042;-81
2021/07/04 12:35:45;;;;;;;2.72;2.50;;;21.60;99.90;;;;;;5032579;28;20037;-81
2021/07/04 12:38:38;;;;;;;2.78;2.53;;;21.60;99.90;;;;;;5013673;28;20501;-77
2021/07/04 12:41:09;;;;;;;2.15;1.92;;;21.60;99.90;;;;;;5040603;28;20049;-79
2021/07/04 12:43:42;;;;;;;1.70;1.60;;;21.60;99.90;;;;;;5032437;28;20849;-78
2021/07/04 12:46:19;;;;;;;2.20;2.00;;;21.70;99.90;;;;;;5014196;28;20061;-78
2021/07/04 12:48:50;;;;;;;3.45;3.00;;;21.90;99.90;;;;;;5031595;28;20046;-78
2021/07/04 12:51:30;;;;;;;3.67;2.80;;;21.90;99.90;;;;;;5032211;28;20049;-78
2021/07/04 12:53:58;;;;;;;2.85;2.33;;;21.70;99.90;;;;;;5010807;28;20395;-79
2021/07/04 12:56:31;;;;;;;2.60;2.15;;;21.60;99.90;;;;;;5011888;28;20065;-79
2021/07/04 12:59:00;;;;;;;4.38;2.33;;;21.60;99.90;;;;;;4993665;28;20042;-78
2021/07/04 13:01:35;;;;;;;2.47;2.28;;;21.70;99.90;;;;;;5011458;28;20422;-79
2021/07/04 13:04:05;;;;;;;2.38;2.17;;;21.90;99.90;;;;;;4992020;28;20057;-78
2021/07/04 13:06:40;;;;;;;3.53;2.03;;;21.80;99.90;;;;;;5026394;28;20080;-78
2021/07/04 13:09:34;;;;;;;1.98;1.77;;;21.60;99.90;;;;;;5010659;28;20046;-78